College Park, Georgia
Current Conditions -  °F | °C
As of 7:52 PM on Saturday 20 Dec 2014 (Local Time) from KATL Reporting Station
Haze Haze  
Wind Chill: 51°   Ceiling: 1200
Heat Index: 51°   Visibility: 6mi
Dew Point: 45°   Wind: 8mph
Humidity: 80%   Direction: 80°E
Pressure: 30.19"   Gusts: NA
Location:  33.64°N, 84.47°W
Report Text: KATL 210052Z 08007KT 6SM HZ OVC012 11/07 A3019 RMK AO2 SLP225 CIG 010V015 T01060072
Loading
Personal Weather Stations






























Interactive Weather Map New forecast layout! Learn more

10-Day Weather Forecast

Advertisements
Track Severe Weather on mobile